createdAt,value
2022-11-01T00:01:53.233Z,100812.78
2022-11-01T00:04:20.212Z,100857.28
2022-11-01T00:06:46.993Z,100854.69
2022-11-01T00:09:16.131Z,100858.41
2022-11-01T00:11:42.827Z,100856.53
2022-11-01T00:14:12.861Z,100848.09
2022-11-01T00:16:39.579Z,100849.94
2022-11-01T00:19:06.041Z,100840.84
2022-11-01T00:21:32.592Z,100844.09
2022-11-01T00:24:01.537Z,100842.19
2022-11-01T00:26:28.388Z,100826.38
2022-11-01T00:28:55.005Z,100837.38
2022-11-01T00:31:21.822Z,100825.22
2022-11-01T00:33:51.237Z,100842.13
2022-11-01T00:36:17.732Z,100824.13
2022-11-01T00:38:44.283Z,100834.41
2022-11-01T00:41:11.090Z,100827.00
2022-11-01T00:43:37.616Z,100824.06
2022-11-01T00:46:06.946Z,100806.72
2022-11-01T00:48:33.527Z,100818.88
2022-11-01T00:51:00.064Z,100822.78
2022-11-01T00:53:26.833Z,100820.69
2022-11-01T00:55:53.434Z,100820.03
2022-11-01T00:58:19.928Z,100814.84
2022-11-01T01:00:48.157Z,100811.91
2022-11-01T01:03:17.233Z,100802.41
2022-11-01T01:05:43.771Z,100806.91
2022-11-01T01:08:10.485Z,100801.56
2022-11-01T01:10:37.047Z,100805.69
2022-11-01T01:13:04.426Z,100801.03
2022-11-01T01:15:31.269Z,100798.28
2022-11-01T01:18:00.433Z,100797.22
2022-11-01T01:20:27.253Z,100783.88
2022-11-01T01:22:54.054Z,100797.38
2022-11-01T01:25:21.110Z,100790.34
2022-11-01T01:27:47.834Z,100796.50
2022-11-01T01:30:15.031Z,100805.22
2022-11-01T01:32:42.288Z,100798.22
2022-11-01T01:35:09.650Z,100799.06
2022-11-01T01:37:38.585Z,100784.34
2022-11-01T01:40:07.118Z,100792.63
2022-11-01T01:42:38.807Z,100789.22
2022-11-01T01:45:05.618Z,100796.94
2022-11-01T01:47:38.580Z,100799.50
2022-11-01T01:50:07.843Z,100793.59
2022-11-01T01:52:47.996Z,100777.94
2022-11-01T01:55:20.325Z,100786.03
2022-11-01T01:57:51.472Z,100791.16
2022-11-01T02:00:18.495Z,100777.69
2022-11-01T02:02:45.435Z,100780.25
2022-11-01T02:05:39.176Z,100778.25
2022-11-01T02:08:07.034Z,100788.50
2022-11-01T02:10:36.241Z,100782.63
2022-11-01T02:13:10.948Z,100780.16
2022-11-01T02:15:48.035Z,100779.59
2022-11-01T02:18:56.193Z,100791.25
2022-11-01T02:21:34.985Z,100785.38
2022-11-01T02:24:16.486Z,100780.72
2022-11-01T02:26:49.219Z,100791.72
2022-11-01T02:29:38.985Z,100789.53
2022-11-01T02:32:29.375Z,100789.34
2022-11-01T02:35:19.410Z,100788.97
2022-11-01T02:37:59.356Z,100785.28
2022-11-01T02:40:53.645Z,100795.03
2022-11-01T02:43:33.387Z,100793.53
2022-11-01T02:46:23.161Z,100809.50
2022-11-01T02:48:49.889Z,100802.28
2022-11-01T02:51:19.990Z,100802.84
2022-11-01T02:53:46.568Z,100807.31
2022-11-01T02:56:17.593Z,100804.56
2022-11-01T02:58:46.724Z,100790.31
2022-11-01T03:01:21.385Z,100781.38
2022-11-01T03:03:51.268Z,100789.81
2022-11-01T03:06:26.676Z,100786.41
2022-11-01T03:09:07.290Z,100798.78
2022-11-01T03:11:55.253Z,100809.97
2022-11-01T03:14:40.840Z,100806.34
2022-11-01T03:17:23.213Z,100812.53
2022-11-01T03:20:18.364Z,100820.78
2022-11-01T03:22:50.035Z,100825.22
2022-11-01T03:25:39.896Z,100841.56
2022-11-01T03:28:14.083Z,100844.13
2022-11-01T03:30:44.555Z,100845.19
2022-11-01T03:33:16.120Z,100843.00
2022-11-01T03:35:47.707Z,100847.63
2022-11-01T03:38:19.168Z,100846.97
2022-11-01T03:40:52.347Z,100862.75
2022-11-01T03:43:20.900Z,100863.66
2022-11-01T03:45:47.597Z,100874.13
2022-11-01T03:48:14.348Z,100879.63
2022-11-01T03:50:49.279Z,100876.78
2022-11-01T03:53:16.133Z,100885.22
2022-11-01T03:55:45.567Z,100905.03
2022-11-01T03:58:12.199Z,100911.47
2022-11-01T04:00:41.781Z,100911.66
2022-11-01T04:03:09.885Z,100917.72
2022-11-01T04:05:37.951Z,100916.25
2022-11-01T04:08:08.571Z,100933.13
2022-11-01T04:10:35.085Z,100936.25
2022-11-01T04:13:02.282Z,100950.72
2022-11-01T04:15:50.152Z,100960.22
2022-11-01T04:18:42.836Z,100964.69
2022-11-01T04:21:13.364Z,100966.63
2022-11-01T04:23:40.488Z,100959.63
2022-11-01T04:26:07.513Z,100984.38
2022-11-01T04:28:34.301Z,100987.66
2022-11-01T04:31:00.973Z,100991.31
2022-11-01T04:33:27.482Z,100992.03
2022-11-01T04:35:57.120Z,100986.75
2022-11-01T04:38:23.860Z,101004.44
2022-11-01T04:40:50.385Z,101002.22
2022-11-01T04:43:17.085Z,101019.56
2022-11-01T04:45:43.675Z,101021.66
2022-11-01T04:48:21.626Z,101021.66
2022-11-01T04:50:48.453Z,101041.22
2022-11-01T04:53:15.305Z,101033.88
2022-11-01T04:55:41.811Z,101049.81
2022-11-01T04:58:09.860Z,101050.53
2022-11-01T05:00:38.071Z,101058.78
2022-11-01T05:03:07.289Z,101067.53
2022-11-01T05:05:34.752Z,101080.06
2022-11-01T05:08:09.109Z,101081.09
2022-11-01T05:10:40.517Z,101075.97
2022-11-01T05:13:07.874Z,101085.22
2022-11-01T05:15:40.184Z,101082.81
2022-11-01T05:18:07.135Z,101089.84
2022-11-01T05:20:33.705Z,101102.69
2022-11-01T05:23:02.030Z,101099.28
2022-11-01T05:25:31.481Z,101109.88
2022-11-01T05:28:02.696Z,101107.47
2022-11-01T05:30:29.549Z,101103.53
2022-11-01T05:33:00.505Z,101115.19
2022-11-01T05:35:28.813Z,101118.78
2022-11-01T05:37:56.270Z,101130.75
2022-11-01T05:40:24.184Z,101110.19
2022-11-01T05:42:51.108Z,101125.25
2022-11-01T05:45:20.407Z,101131.06
2022-11-01T05:47:47.059Z,101135.53
2022-11-01T05:50:17.936Z,101134.69
2022-11-01T05:52:44.600Z,101148.56
2022-11-01T05:55:11.251Z,101148.88
2022-11-01T05:57:38.345Z,101136.00
2022-11-01T06:00:08.467Z,101146.13
2022-11-01T06:02:35.092Z,101149.19
2022-11-01T06:05:03.284Z,101152.25
2022-11-01T06:07:30.375Z,101149.84
2022-11-01T06:09:56.909Z,101164.72
2022-11-01T06:12:25.542Z,101169.69
2022-11-01T06:14:52.300Z,101167.59
2022-11-01T06:17:21.136Z,101169.50
2022-11-01T06:19:47.672Z,101175.16
2022-11-01T06:22:16.571Z,101191.31
2022-11-01T06:24:45.378Z,101188.25
2022-11-01T06:27:12.837Z,101185.66
2022-11-01T06:29:39.625Z,101204.00
2022-11-01T06:32:08.487Z,101196.59
2022-11-01T06:34:35.035Z,101205.50
2022-11-01T06:37:02.243Z,101214.22
2022-11-01T06:39:28.752Z,101217.13
2022-11-01T06:41:55.261Z,101219.16
2022-11-01T06:44:22.141Z,101213.16
2022-11-01T06:46:48.672Z,101224.13
2022-11-01T06:49:19.210Z,101215.38
2022-11-01T06:51:46.316Z,101213.94
2022-11-01T06:54:15.342Z,101220.28
2022-11-01T06:56:41.880Z,101223.69
2022-11-01T06:59:10.657Z,101230.34
2022-11-01T07:01:37.332Z,101241.16
2022-11-01T07:04:04.198Z,101241.47
2022-11-01T07:06:31.136Z,101263.09
2022-11-01T07:09:00.981Z,101251.09
2022-11-01T07:11:31.663Z,101263.66
2022-11-01T07:14:01.156Z,101262.28
2022-11-01T07:16:27.787Z,101266.72
2022-11-01T07:18:54.458Z,101277.22
2022-11-01T07:21:21.610Z,101289.06
2022-11-01T07:23:48.069Z,101292.66
2022-11-01T07:26:14.706Z,101302.44
2022-11-01T07:28:41.319Z,101308.81
2022-11-01T07:31:10.311Z,101305.00
2022-11-01T07:33:36.986Z,101303.47
2022-11-01T07:36:06.459Z,101317.56
2022-11-01T07:38:32.989Z,101310.50
2022-11-01T07:40:59.572Z,101308.63
2022-11-01T07:43:26.226Z,101318.41
2022-11-01T07:45:53.421Z,101322.03
2022-11-01T07:48:20.832Z,101323.56
2022-11-01T07:50:47.361Z,101341.44
2022-11-01T07:53:17.182Z,101334.91
2022-11-01T07:55:44.974Z,101325.31
2022-11-01T07:58:17.106Z,101330.16
2022-11-01T08:00:44.487Z,101327.56
2022-11-01T08:03:16.253Z,101347.16
2022-11-01T08:05:43.854Z,101342.50
2022-11-01T08:08:14.018Z,101341.13
2022-11-01T08:10:42.212Z,101354.19
2022-11-01T08:13:21.720Z,101350.44
2022-11-01T08:15:49.773Z,101350.09
2022-11-01T08:18:19.117Z,101332.44
2022-11-01T08:20:45.792Z,101348.06
2022-11-01T08:23:12.767Z,101358.41
2022-11-01T08:25:39.623Z,101366.31
2022-11-01T08:28:12.056Z,101360.81
2022-11-01T08:30:40.574Z,101357.91
2022-11-01T08:33:07.282Z,101366.53
2022-11-01T08:35:34.488Z,101374.28
2022-11-01T08:38:04.127Z,101372.06
2022-11-01T08:40:32.277Z,101373.63
2022-11-01T08:42:59.362Z,101358.34
2022-11-01T08:45:26.961Z,101377.59
2022-11-01T08:47:58.279Z,101386.56
2022-11-01T08:50:25.212Z,101378.31
2022-11-01T08:52:52.019Z,101395.69
2022-11-01T08:55:18.652Z,101397.13
2022-11-01T08:57:45.175Z,101397.44
2022-11-01T09:00:16.426Z,101391.31
2022-11-01T09:02:43.218Z,101404.28
2022-11-01T09:05:12.065Z,101409.59
2022-11-01T09:07:38.712Z,101401.00
2022-11-01T09:10:06.304Z,101400.47
2022-11-01T09:12:33.142Z,101402.72
2022-11-01T09:15:02.084Z,101409.06
2022-11-01T09:17:29.061Z,101404.09
2022-11-01T09:19:55.930Z,101411.28
2022-11-01T09:22:23.192Z,101419.03
2022-11-01T09:24:49.799Z,101416.28
2022-11-01T09:27:16.387Z,101418.16
2022-11-01T09:29:45.264Z,101423.66
2022-11-01T09:32:14.553Z,101423.97
2022-11-01T09:34:41.092Z,101428.63
2022-11-01T09:37:07.579Z,101441.72
2022-11-01T09:39:34.110Z,101436.91
2022-11-01T09:42:10.543Z,101445.16
2022-11-01T09:44:43.986Z,101453.41
2022-11-01T09:47:21.437Z,101458.09
2022-11-01T09:49:52.721Z,101452.91
2022-11-01T09:52:22.365Z,101474.94
2022-11-01T09:54:49.794Z,101464.94
2022-11-01T09:57:26.709Z,101485.94
2022-11-01T10:00:07.924Z,101484.22
2022-11-01T10:03:14.412Z,101476.28
2022-11-01T10:05:54.835Z,101485.06
2022-11-01T10:08:37.085Z,101498.50
2022-11-01T10:11:05.847Z,101502.28
2022-11-01T10:13:50.916Z,101510.38
2022-11-01T10:16:23.387Z,101498.66
2022-11-01T10:19:21.989Z,101503.16
2022-11-01T10:21:50.561Z,101505.41
2022-11-01T10:24:39.006Z,101505.53
2022-11-01T10:27:34.548Z,101510.88
2022-11-01T10:30:11.201Z,101514.50
2022-11-01T10:32:49.883Z,101507.25
2022-11-01T10:35:22.583Z,101505.84
2022-11-01T10:38:18.965Z,101514.94
2022-11-01T10:41:01.612Z,101498.16
2022-11-01T10:43:28.189Z,101503.69
2022-11-01T10:45:57.970Z,101493.31
2022-11-01T10:48:30.655Z,101502.97
2022-11-01T10:51:01.250Z,101494.97
2022-11-01T10:53:37.168Z,101497.69
2022-11-01T10:56:09.136Z,101505.56
2022-11-01T10:59:10.440Z,101503.94
2022-11-01T11:01:42.691Z,101501.88
2022-11-01T11:04:14.478Z,101502.22
2022-11-01T11:06:42.361Z,101508.59
2022-11-01T11:09:24.654Z,101500.25
2022-11-01T11:11:53.561Z,101496.59
2022-11-01T11:14:23.962Z,101507.09
2022-11-01T11:16:55.506Z,101503.28
2022-11-01T11:19:33.303Z,101498.97
2022-11-01T11:22:02.811Z,101481.56
2022-11-01T11:24:37.707Z,101483.53
2022-11-01T11:27:12.684Z,101497.94
2022-11-01T11:29:49.130Z,101496.03
2022-11-01T11:32:20.010Z,101500.50
2022-11-01T11:35:16.847Z,101490.72
2022-11-01T11:37:58.171Z,101487.09
2022-11-01T11:40:49.006Z,101488.13
2022-11-01T11:43:31.717Z,101491.41
2022-11-01T11:46:10.504Z,101502.19
2022-11-01T11:48:58.436Z,101503.72
2022-11-01T11:51:38.154Z,101503.81
2022-11-01T11:54:31.511Z,101497.25
2022-11-01T11:57:30.175Z,101506.13
2022-11-01T12:00:03.106Z,101498.88
2022-11-01T12:02:36.734Z,101502.31
2022-11-01T12:05:07.255Z,101504.94
2022-11-01T12:07:46.875Z,101504.41
2022-11-01T12:10:37.056Z,101513.22
2022-11-01T12:13:35.978Z,101502.53
2022-11-01T12:16:11.524Z,101502.06
2022-11-01T12:18:55.515Z,101512.00
2022-11-01T12:21:48.934Z,101507.69
2022-11-01T12:24:24.417Z,101506.47
2022-11-01T12:26:54.305Z,101492.38
2022-11-01T12:29:26.812Z,101502.94
2022-11-01T12:31:56.259Z,101502.56
2022-11-01T12:34:29.892Z,101495.88
2022-11-01T12:37:03.142Z,101497.88
2022-11-01T12:39:50.594Z,101492.16
2022-11-01T12:42:28.721Z,101482.81
2022-11-01T12:45:02.180Z,101486.16
2022-11-01T12:47:38.879Z,101485.56
2022-11-01T12:50:19.783Z,101478.97
2022-11-01T12:52:58.361Z,101466.50
2022-11-01T12:55:38.935Z,101473.72
2022-11-01T12:58:13.296Z,101472.78
2022-11-01T13:00:48.695Z,101482.50
2022-11-01T13:03:21.388Z,101485.28
2022-11-01T13:06:28.426Z,101474.63
2022-11-01T13:09:16.337Z,101476.25
2022-11-01T13:11:58.221Z,101479.75
2022-11-01T13:14:43.274Z,101476.16
2022-11-01T13:17:27.164Z,101468.22
2022-11-01T13:20:09.276Z,101473.41
2022-11-01T13:22:45.881Z,101458.78
2022-11-01T13:25:35.919Z,101470.91
2022-11-01T13:28:31.634Z,101472.38
2022-11-01T13:31:35.356Z,101456.06
2022-11-01T13:34:04.975Z,101460.94
2022-11-01T13:37:00.704Z,101457.28
2022-11-01T13:39:53.635Z,101451.47
2022-11-01T13:42:55.702Z,101459.78
2022-11-01T13:45:57.921Z,101461.88
2022-11-01T13:48:30.395Z,101454.13
2022-11-01T13:51:09.387Z,101471.28
2022-11-01T13:53:45.634Z,101455.25
2022-11-01T13:56:28.929Z,101468.59
2022-11-01T13:58:56.216Z,101463.13
2022-11-01T14:01:29.053Z,101478.97
2022-11-01T14:04:11.130Z,101457.25
2022-11-01T14:06:45.502Z,101477.50
2022-11-01T14:09:32.451Z,101478.03
2022-11-01T14:12:05.026Z,101463.28
2022-11-01T14:14:31.458Z,101469.16
2022-11-01T14:17:20.876Z,101466.59
2022-11-01T14:19:49.932Z,101479.72
2022-11-01T14:22:22.560Z,101482.47
2022-11-01T14:24:57.648Z,101482.66
2022-11-01T14:27:35.550Z,101498.56
2022-11-01T14:30:12.278Z,101485.31
2022-11-01T14:32:38.919Z,101472.00
2022-11-01T14:35:12.004Z,101471.03
2022-11-01T14:37:46.308Z,101460.50
2022-11-01T14:40:21.988Z,101481.53
2022-11-01T14:42:53.364Z,101474.84
2022-11-01T14:45:29.294Z,101475.88
2022-11-01T14:48:05.078Z,101469.38
2022-11-01T14:50:48.100Z,101477.81
2022-11-01T14:53:32.564Z,101476.28
2022-11-01T14:56:06.363Z,101469.25
2022-11-01T14:58:32.998Z,101477.19
2022-11-01T15:01:05.996Z,101467.16
2022-11-01T15:03:33.473Z,101483.09
2022-11-01T15:06:02.325Z,101477.94
2022-11-01T15:08:40.479Z,101477.41
2022-11-01T15:11:07.837Z,101466.41
2022-11-01T15:13:39.124Z,101464.41
2022-11-01T15:16:21.739Z,101453.75
2022-11-01T15:18:58.692Z,101470.81
2022-11-01T15:21:30.831Z,101471.53
2022-11-01T15:23:59.715Z,101477.75
2022-11-01T15:26:35.451Z,101472.75
2022-11-01T15:29:05.726Z,101466.44
2022-11-01T15:31:34.833Z,101465.75
2022-11-01T15:34:02.978Z,101461.63
2022-11-01T15:36:33.615Z,101469.56
2022-11-01T15:39:02.910Z,101471.13
2022-11-01T15:41:34.729Z,101457.16
2022-11-01T15:44:06.204Z,101466.16
2022-11-01T15:46:38.942Z,101456.19
2022-11-01T15:49:10.841Z,101468.38
2022-11-01T15:51:42.581Z,101463.56
2022-11-01T15:54:37.639Z,101467.06
2022-11-01T15:57:17.438Z,101472.19
2022-11-01T16:00:06.615Z,101466.72
2022-11-01T16:02:56.013Z,101482.34
2022-11-01T16:05:29.741Z,101479.78
2022-11-01T16:07:58.412Z,101477.03
2022-11-01T16:10:30.704Z,101488.06
2022-11-01T16:12:59.930Z,101493.22
2022-11-01T16:15:29.248Z,101497.31
2022-11-01T16:17:59.999Z,101503.50
2022-11-01T16:20:36.308Z,101498.38
2022-11-01T16:23:24.555Z,101504.22
2022-11-01T16:26:08.933Z,101507.63
2022-11-01T16:28:45.574Z,101522.06
2022-11-01T16:31:43.139Z,101511.41
2022-11-01T16:34:23.894Z,101512.81
2022-11-01T16:36:51.538Z,101514.72
2022-11-01T16:39:31.358Z,101517.09
2022-11-01T16:41:59.138Z,101519.69
2022-11-01T16:44:28.049Z,101514.72
2022-11-01T16:46:55.311Z,101522.81
2022-11-01T16:49:24.423Z,101521.75
2022-11-01T16:51:52.634Z,101512.47
2022-11-01T16:54:21.489Z,101511.63
2022-11-01T16:57:00.743Z,101511.09
2022-11-01T16:59:38.070Z,101500.78
2022-11-01T17:02:16.237Z,101507.50
2022-11-01T17:04:44.144Z,101513.50
2022-11-01T17:07:12.073Z,101509.56
2022-11-01T17:09:39.725Z,101500.75
2022-11-01T17:12:07.188Z,101508.16
2022-11-01T17:14:35.781Z,101509.22
2022-11-01T17:17:11.539Z,101505.75
2022-11-01T17:19:43.395Z,101507.81
2022-11-01T17:22:22.850Z,101497.50
2022-11-01T17:24:49.448Z,101494.41
2022-11-01T17:27:16.879Z,101495.25
2022-11-01T17:29:45.735Z,101499.03
2022-11-01T17:32:12.544Z,101492.13
2022-11-01T17:34:39.290Z,101490.25
2022-11-01T17:37:06.375Z,101489.72
2022-11-01T17:39:33.050Z,101491.97
2022-11-01T17:42:02.618Z,101493.72
2022-11-01T17:44:29.166Z,101501.97
2022-11-01T17:46:55.653Z,101501.63
2022-11-01T17:49:24.306Z,101506.78
2022-11-01T17:51:54.753Z,101503.16
2022-11-01T17:56:52.632Z,101498.31
2022-11-01T17:59:19.311Z,101501.63
2022-11-01T18:01:48.467Z,101510.72
2022-11-01T18:04:15.414Z,101499.03
2022-11-01T18:06:42.474Z,101499.88
2022-11-01T18:09:24.181Z,101490.25
2022-11-01T18:12:02.219Z,101498.00
2022-11-01T18:14:39.584Z,101502.13
2022-11-01T18:17:27.614Z,101501.59
2022-11-01T18:20:04.522Z,101501.78
2022-11-01T18:23:10.141Z,101497.97
2022-11-01T18:25:40.993Z,101506.38
2022-11-01T18:28:15.850Z,101500.16
2022-11-01T18:30:49.859Z,101505.31
2022-11-01T18:33:38.364Z,101501.66
2022-11-01T18:36:46.200Z,101507.50
2022-11-01T18:39:21.352Z,101499.06
2022-11-01T18:41:49.697Z,101506.81
2022-11-01T18:44:16.864Z,101493.22
2022-11-01T18:46:53.892Z,101490.81
2022-11-01T18:49:22.441Z,101510.22
2022-11-01T18:51:50.180Z,101503.88
2022-11-01T18:54:23.399Z,101509.53
2022-11-01T18:56:56.108Z,101508.34
2022-11-01T18:59:24.616Z,101512.81
2022-11-01T19:02:02.242Z,101513.84
2022-11-01T19:04:35.550Z,101509.53
2022-11-01T19:07:16.209Z,101514.19
2022-11-01T19:09:48.089Z,101508.50
2022-11-01T19:12:17.922Z,101512.13
2022-11-01T19:14:48.794Z,101522.25
2022-11-01T19:17:27.576Z,101515.19
2022-11-01T19:19:56.369Z,101515.34
2022-11-01T19:22:41.813Z,101507.28
2022-11-01T19:25:36.152Z,101508.84
2022-11-01T19:28:35.037Z,101527.25
2022-11-01T19:31:27.399Z,101521.66
2022-11-01T19:33:57.060Z,101505.97
2022-11-01T19:36:30.120Z,101506.47
2022-11-01T19:38:56.679Z,101501.31
2022-11-01T19:41:29.816Z,101490.63
2022-11-01T19:43:59.399Z,101478.09
2022-11-01T19:46:26.262Z,101487.53
2022-11-01T19:48:53.397Z,101469.28
2022-11-01T19:51:23.578Z,101463.09
2022-11-01T19:53:51.408Z,101470.66
2022-11-01T19:56:24.293Z,101469.97
2022-11-01T19:58:55.368Z,101475.22
2022-11-01T20:01:31.024Z,101477.53
2022-11-01T20:04:28.970Z,101477.13
2022-11-01T20:07:13.799Z,101477.09
2022-11-01T20:09:40.384Z,101481.06
2022-11-01T20:12:08.089Z,101484.81
2022-11-01T20:14:35.364Z,101473.66
2022-11-01T20:17:02.216Z,101464.56
2022-11-01T20:19:29.349Z,101465.97
2022-11-01T20:21:55.984Z,101463.38
2022-11-01T20:24:22.917Z,101467.31
2022-11-01T20:26:50.726Z,101464.56
2022-11-01T20:29:17.246Z,101466.59
2022-11-01T20:31:43.814Z,101472.25
2022-11-01T20:34:10.347Z,101477.91
2022-11-01T20:36:36.917Z,101477.06
2022-11-01T20:39:03.538Z,101469.31
2022-11-01T20:41:30.220Z,101483.09
2022-11-01T20:43:56.803Z,101492.91
2022-11-01T20:46:23.989Z,101497.34
2022-11-01T20:48:53.074Z,101497.19
2022-11-01T20:51:21.722Z,101497.72
2022-11-01T20:53:48.295Z,101499.75
2022-11-01T20:56:14.808Z,101499.06
2022-11-01T20:58:41.306Z,101496.94
2022-11-01T21:01:19.430Z,101510.84
2022-11-01T21:03:46.371Z,101511.53
2022-11-01T21:06:17.712Z,101510.72
2022-11-01T21:08:49.019Z,101499.38
2022-11-01T21:11:44.449Z,101508.09
2022-11-01T21:14:18.706Z,101511.34
2022-11-01T21:16:46.395Z,101517.88
2022-11-01T21:19:23.715Z,101514.34
2022-11-01T21:21:58.369Z,101520.00
2022-11-01T21:24:44.351Z,101518.47
2022-11-01T21:27:10.952Z,101517.06
2022-11-01T21:29:44.786Z,101501.25
2022-11-01T21:32:30.008Z,101505.16
2022-11-01T21:34:58.219Z,101506.00
2022-11-01T21:37:28.522Z,101498.09
2022-11-01T21:40:03.180Z,101497.41
2022-11-01T21:42:33.970Z,101502.91
2022-11-01T21:45:02.787Z,101500.47
2022-11-01T21:47:31.302Z,101492.34
2022-11-01T21:49:58.377Z,101501.34
2022-11-01T21:52:25.049Z,101482.28
2022-11-01T21:54:53.813Z,101504.53
2022-11-01T21:57:22.833Z,101495.41
2022-11-01T21:59:51.932Z,101497.47
2022-11-01T22:02:18.527Z,101471.38
2022-11-01T22:04:45.365Z,101494.72
2022-11-01T22:07:14.053Z,101483.06
2022-11-01T22:09:40.643Z,101469.50
2022-11-01T22:12:07.857Z,101458.66
2022-11-01T22:14:34.997Z,101466.53
2022-11-01T22:17:01.615Z,101463.06
2022-11-01T22:19:28.167Z,101448.78
2022-11-01T22:21:57.259Z,101450.53
2022-11-01T22:24:23.932Z,101446.06
2022-11-01T22:26:50.516Z,101442.56
2022-11-01T22:29:22.295Z,101441.34
2022-11-01T22:31:48.823Z,101434.97
2022-11-01T22:34:17.735Z,101425.50
2022-11-01T22:36:44.260Z,101432.53
2022-11-01T22:39:17.045Z,101442.81
2022-11-01T22:41:43.934Z,101426.97
2022-11-01T22:44:14.400Z,101412.56
2022-11-01T22:46:53.652Z,101424.09
2022-11-01T22:49:30.914Z,101423.94
2022-11-01T22:52:16.990Z,101424.94
2022-11-01T22:54:49.822Z,101414.28
2022-11-01T22:57:23.634Z,101405.34
2022-11-01T22:59:53.362Z,101413.91
2022-11-01T23:02:28.892Z,101405.97
2022-11-01T23:05:07.736Z,101413.66
2022-11-01T23:07:35.748Z,101406.63
2022-11-01T23:10:34.950Z,101413.75
2022-11-01T23:13:51.524Z,101408.97
2022-11-01T23:16:21.110Z,101407.81
2022-11-01T23:18:48.150Z,101403.78
2022-11-01T23:21:14.731Z,101412.91
2022-11-01T23:23:44.973Z,101399.81
2022-11-01T23:26:12.961Z,101405.38
2022-11-01T23:28:48.758Z,101396.59
2022-11-01T23:31:16.384Z,101404.59
2022-11-01T23:33:48.634Z,101406.53
2022-11-01T23:36:15.111Z,101402.44
2022-11-01T23:38:49.696Z,101399.53
2022-11-01T23:41:22.682Z,101401.44
2022-11-01T23:43:52.085Z,101397.34
2022-11-01T23:46:19.405Z,101404.63
2022-11-01T23:48:46.985Z,101395.22
2022-11-01T23:51:20.958Z,101400.75
2022-11-01T23:53:51.242Z,101404.72
2022-11-01T23:56:19.604Z,101388.25
2022-11-01T23:58:54.107Z,101404.63
